createdAt,value
2022-10-29T00:01:47.039Z,14.30
2022-10-29T00:04:14.074Z,14.40
2022-10-29T00:06:41.074Z,14.40
2022-10-29T00:09:08.090Z,14.50
2022-10-29T00:11:39.722Z,14.50
2022-10-29T00:14:09.733Z,14.50
2022-10-29T00:16:45.519Z,14.50
2022-10-29T00:19:12.870Z,14.50
2022-10-29T00:21:40.430Z,14.50
2022-10-29T00:24:09.985Z,14.50
2022-10-29T00:26:50.699Z,14.40
2022-10-29T00:29:29.696Z,14.20
2022-10-29T00:31:56.716Z,14.10
2022-10-29T00:34:23.724Z,14.20
2022-10-29T00:36:54.454Z,14.20
2022-10-29T00:39:21.437Z,14.30
2022-10-29T00:41:49.684Z,14.30
2022-10-29T00:44:30.149Z,14.30
2022-10-29T00:47:13.079Z,14.30
2022-10-29T00:49:42.545Z,14.10
2022-10-29T00:52:16.554Z,14.10
2022-10-29T00:54:47.943Z,14.10
2022-10-29T00:57:28.360Z,14.20
2022-10-29T00:59:58.087Z,14.20
2022-10-29T01:02:30.805Z,14.10
2022-10-29T01:07:41.929Z,14.20
2022-10-29T01:10:15.739Z,14.20
2022-10-29T01:13:10.686Z,14.20
2022-10-29T01:15:55.717Z,14.10
2022-10-29T01:18:35.839Z,14.00
2022-10-29T01:21:50.433Z,14.10
2022-10-29T01:25:15.281Z,14.00
2022-10-29T01:28:08.542Z,14.00
2022-10-29T01:31:14.175Z,14.00
2022-10-29T01:33:55.270Z,13.90
2022-10-29T01:36:31.178Z,14.00
2022-10-29T01:39:09.386Z,14.10
2022-10-29T01:41:49.887Z,14.00
2022-10-29T01:44:29.240Z,14.00
2022-10-29T01:47:00.294Z,13.90
2022-10-29T01:49:40.812Z,13.90
2022-10-29T01:52:14.416Z,13.80
2022-10-29T01:54:42.540Z,13.90
2022-10-29T01:57:41.995Z,13.90
2022-10-29T02:00:13.114Z,13.90
2022-10-29T02:03:02.854Z,13.90
2022-10-29T02:05:34.807Z,13.90
2022-10-29T02:08:18.554Z,13.90
2022-10-29T02:10:53.946Z,13.70
2022-10-29T02:13:30.889Z,13.70
2022-10-29T02:16:00.628Z,13.80
2022-10-29T02:18:29.178Z,13.70
2022-10-29T02:20:56.171Z,13.70
2022-10-29T02:23:23.156Z,13.60
2022-10-29T02:25:50.110Z,13.60
2022-10-29T02:28:17.234Z,13.70
2022-10-29T02:30:44.386Z,13.70
2022-10-29T02:33:13.542Z,13.70
2022-10-29T02:35:42.034Z,13.70
2022-10-29T02:38:09.054Z,13.70
2022-10-29T02:40:36.109Z,13.70
2022-10-29T02:43:03.178Z,13.60
2022-10-29T02:45:30.246Z,13.50
2022-10-29T02:47:57.628Z,13.40
2022-10-29T02:50:24.886Z,13.40
2022-10-29T02:52:53.214Z,13.30
2022-10-29T02:55:26.569Z,13.40
2022-10-29T02:57:53.689Z,13.30
2022-10-29T03:00:21.147Z,13.40
2022-10-29T03:02:52.845Z,13.30
2022-10-29T03:05:19.992Z,13.40
2022-10-29T03:07:49.647Z,13.40
2022-10-29T03:10:18.488Z,13.50
2022-10-29T03:12:45.407Z,13.50
2022-10-29T03:15:12.344Z,13.60
2022-10-29T03:17:39.342Z,13.60
2022-10-29T03:20:07.936Z,13.50
2022-10-29T03:22:36.920Z,13.50
2022-10-29T03:25:07.971Z,13.50
2022-10-29T03:27:43.424Z,13.40
2022-10-29T03:30:17.928Z,13.40
2022-10-29T03:32:48.123Z,13.40
2022-10-29T03:35:16.508Z,13.40
2022-10-29T03:38:05.073Z,13.40
2022-10-29T03:40:35.227Z,13.40
2022-10-29T03:43:03.466Z,13.40
2022-10-29T03:45:30.434Z,13.40
2022-10-29T03:47:57.691Z,13.30
2022-10-29T03:50:24.956Z,13.40
2022-10-29T03:52:53.717Z,13.40
2022-10-29T03:55:20.586Z,13.40
2022-10-29T03:57:50.775Z,13.30
2022-10-29T04:00:19.251Z,13.40
2022-10-29T04:02:46.269Z,13.40
2022-10-29T04:05:18.936Z,13.40
2022-10-29T04:07:55.027Z,13.20
2022-10-29T04:10:26.654Z,13.20
2022-10-29T04:12:53.832Z,13.30
2022-10-29T04:15:31.052Z,13.30
2022-10-29T04:17:58.362Z,13.20
2022-10-29T04:21:03.136Z,13.20
2022-10-29T04:28:17.521Z,13.40
2022-10-29T04:28:52.737Z,13.50
2022-10-29T04:31:23.951Z,13.40
2022-10-29T04:33:54.198Z,13.40
2022-10-29T04:36:33.099Z,13.40
2022-10-29T04:39:05.650Z,13.40
2022-10-29T04:41:32.936Z,13.50
2022-10-29T04:44:03.010Z,13.50
2022-10-29T04:46:31.277Z,13.50
2022-10-29T04:48:58.357Z,13.50
2022-10-29T04:51:28.217Z,13.40
2022-10-29T04:53:55.219Z,13.40
2022-10-29T04:56:24.605Z,13.40
2022-10-29T04:58:53.685Z,13.40
2022-10-29T05:01:20.937Z,13.50
2022-10-29T05:04:00.203Z,13.60
2022-10-29T05:06:29.837Z,13.60
2022-10-29T05:08:56.775Z,13.60
2022-10-29T05:11:32.455Z,13.60
2022-10-29T05:13:59.369Z,13.70
2022-10-29T05:16:26.278Z,13.70
2022-10-29T05:18:53.174Z,13.70
2022-10-29T05:21:21.513Z,13.70
2022-10-29T05:23:57.774Z,13.70
2022-10-29T05:26:24.698Z,13.80
2022-10-29T05:28:57.751Z,13.80
2022-10-29T05:31:24.963Z,13.70
2022-10-29T05:33:56.009Z,13.60
2022-10-29T05:36:27.566Z,13.60
2022-10-29T05:38:57.404Z,13.70
2022-10-29T05:41:29.400Z,13.60
2022-10-29T05:43:56.390Z,13.70
2022-10-29T05:46:23.292Z,13.70
2022-10-29T05:48:50.280Z,13.80
2022-10-29T05:51:17.157Z,13.80
2022-10-29T05:53:52.736Z,13.70
2022-10-29T05:56:19.672Z,13.70
2022-10-29T05:58:50.133Z,13.60
2022-10-29T06:01:19.781Z,13.60
2022-10-29T06:03:47.915Z,13.60
2022-10-29T06:06:17.155Z,13.60
2022-10-29T06:08:45.401Z,13.70
2022-10-29T06:11:15.489Z,13.60
2022-10-29T06:13:48.125Z,13.70
2022-10-29T06:16:24.315Z,13.70
2022-10-29T06:18:51.244Z,13.70
2022-10-29T06:21:21.096Z,13.70
2022-10-29T06:23:54.125Z,13.80
2022-10-29T06:26:21.092Z,13.90
2022-10-29T06:28:48.082Z,13.80
2022-10-29T06:31:14.943Z,13.80
2022-10-29T06:33:41.889Z,13.70
2022-10-29T06:36:09.148Z,13.70
2022-10-29T06:38:42.626Z,13.80
2022-10-29T06:41:10.919Z,13.80
2022-10-29T06:43:40.799Z,13.70
2022-10-29T06:46:10.727Z,13.70
2022-10-29T06:48:37.736Z,13.70
2022-10-29T06:51:05.177Z,13.70
2022-10-29T06:53:32.082Z,13.80
2022-10-29T06:56:02.342Z,13.90
2022-10-29T06:58:30.638Z,13.90
2022-10-29T07:01:01.047Z,13.90
2022-10-29T07:03:31.040Z,13.90
2022-10-29T07:05:59.725Z,14.00
2022-10-29T07:08:27.001Z,14.00
2022-10-29T07:10:54.633Z,14.00
2022-10-29T07:13:21.800Z,14.00
2022-10-29T07:15:50.230Z,14.00
2022-10-29T07:18:17.240Z,14.10
2022-10-29T07:20:45.610Z,14.10
2022-10-29T07:23:13.899Z,14.10
2022-10-29T07:25:41.815Z,14.10
2022-10-29T07:28:16.116Z,14.20
2022-10-29T07:31:01.333Z,14.10
2022-10-29T07:33:34.286Z,14.20
2022-10-29T07:36:04.924Z,14.30
2022-10-29T07:38:31.847Z,14.30
2022-10-29T07:40:58.832Z,14.40
2022-10-29T07:43:25.780Z,14.30
2022-10-29T07:46:02.771Z,14.40
2022-10-29T07:48:42.086Z,14.40
2022-10-29T07:51:09.066Z,14.40
2022-10-29T07:53:36.074Z,14.50
2022-10-29T07:56:02.992Z,14.60
2022-10-29T07:58:30.024Z,14.60
2022-10-29T08:01:03.610Z,14.60
2022-10-29T08:03:30.557Z,14.60
2022-10-29T08:06:00.685Z,14.70
2022-10-29T08:08:33.147Z,14.70
2022-10-29T08:11:04.521Z,14.80
2022-10-29T08:13:34.985Z,14.80
2022-10-29T08:16:06.478Z,14.90
2022-10-29T08:18:33.543Z,14.90
2022-10-29T08:21:04.876Z,14.90
2022-10-29T08:26:22.453Z,15.00
2022-10-29T08:28:55.175Z,15.00
2022-10-29T08:31:26.664Z,15.00
2022-10-29T08:33:53.547Z,15.00
2022-10-29T08:36:23.660Z,15.00
2022-10-29T08:38:55.211Z,15.10
2022-10-29T08:41:51.582Z,15.10
2022-10-29T08:45:01.341Z,15.10
2022-10-29T08:47:32.946Z,15.20
2022-10-29T08:50:06.130Z,15.20
2022-10-29T08:52:53.231Z,15.20
2022-10-29T08:55:35.920Z,15.30
2022-10-29T08:58:19.959Z,15.30
2022-10-29T09:00:49.993Z,15.40
2022-10-29T09:03:18.334Z,15.40
2022-10-29T09:06:07.138Z,15.50
2022-10-29T09:08:57.374Z,15.50
2022-10-29T09:12:00.810Z,15.50
2022-10-29T09:15:18.278Z,15.50
2022-10-29T09:18:15.101Z,15.60
2022-10-29T09:20:52.744Z,15.70
2022-10-29T09:23:31.508Z,15.80
2022-10-29T09:26:04.354Z,15.90
2022-10-29T09:29:03.361Z,16.00
2022-10-29T09:31:41.396Z,16.00
2022-10-29T09:34:22.722Z,16.10
2022-10-29T09:36:54.790Z,16.20
2022-10-29T09:39:33.899Z,16.20
2022-10-29T09:42:03.156Z,16.30
2022-10-29T09:44:40.116Z,16.30
2022-10-29T09:47:19.278Z,16.40
2022-10-29T09:50:05.200Z,16.30
2022-10-29T09:52:41.669Z,16.30
2022-10-29T09:55:18.863Z,16.40
2022-10-29T09:57:53.177Z,16.40
2022-10-29T10:00:35.198Z,16.30
2022-10-29T10:03:16.681Z,16.40
2022-10-29T10:06:03.194Z,16.40
2022-10-29T10:09:05.861Z,16.40
2022-10-29T10:11:40.315Z,16.40
2022-10-29T10:14:17.944Z,16.50
2022-10-29T10:16:45.423Z,16.50
2022-10-29T10:19:24.389Z,16.60
2022-10-29T10:21:59.397Z,16.60
2022-10-29T10:24:34.274Z,16.70
2022-10-29T10:27:03.389Z,16.80
2022-10-29T10:29:33.279Z,16.80
2022-10-29T10:32:16.785Z,16.90
2022-10-29T10:34:43.724Z,16.90
2022-10-29T10:37:19.147Z,16.90
2022-10-29T10:39:51.055Z,17.00
2022-10-29T10:42:22.556Z,17.00
2022-10-29T10:44:56.035Z,17.10
2022-10-29T10:47:27.362Z,17.20
2022-10-29T10:49:54.539Z,17.30
2022-10-29T10:52:26.951Z,17.30
2022-10-29T10:55:08.100Z,17.40
2022-10-29T10:57:42.290Z,17.50
2022-10-29T11:00:19.396Z,17.50
2022-10-29T11:02:54.920Z,17.50
2022-10-29T11:05:28.177Z,17.50
2022-10-29T11:08:05.489Z,17.50
2022-10-29T11:10:37.252Z,17.50
2022-10-29T11:13:14.012Z,17.60
2022-10-29T11:15:47.604Z,17.60
2022-10-29T11:18:22.437Z,17.60
2022-10-29T11:21:11.822Z,17.60
2022-10-29T11:23:56.831Z,17.60
2022-10-29T11:26:32.001Z,17.60
2022-10-29T11:29:24.592Z,17.60
2022-10-29T11:32:12.566Z,17.60
2022-10-29T11:34:48.506Z,17.70
2022-10-29T11:37:29.562Z,17.70
2022-10-29T11:40:02.907Z,17.70
2022-10-29T11:42:39.446Z,17.70
2022-10-29T11:45:13.927Z,17.70
2022-10-29T11:48:15.438Z,17.70
2022-10-29T11:50:52.928Z,17.70
2022-10-29T11:53:41.299Z,17.70
2022-10-29T11:56:40.536Z,17.70
2022-10-29T11:59:22.290Z,17.80
2022-10-29T12:02:05.782Z,17.80
2022-10-29T12:04:44.369Z,17.80
2022-10-29T12:07:25.922Z,17.80
2022-10-29T12:10:27.798Z,17.80
2022-10-29T12:13:04.771Z,17.90
2022-10-29T12:15:39.308Z,17.80
2022-10-29T12:18:20.551Z,17.80
2022-10-29T12:20:59.049Z,17.80
2022-10-29T12:23:42.354Z,17.80
2022-10-29T12:26:33.545Z,17.90
2022-10-29T12:29:06.390Z,17.90
2022-10-29T12:31:53.008Z,17.90
2022-10-29T12:34:33.075Z,17.90
2022-10-29T12:37:11.881Z,17.90
2022-10-29T12:39:46.403Z,17.90
2022-10-29T12:42:19.216Z,18.00
2022-10-29T12:48:20.271Z,17.90
2022-10-29T12:51:01.730Z,17.90
2022-10-29T12:53:36.328Z,17.90
2022-10-29T12:56:16.382Z,18.00
2022-10-29T12:58:59.708Z,18.00
2022-10-29T13:04:38.720Z,18.00
2022-10-29T13:07:26.320Z,18.00
2022-10-29T13:10:51.063Z,18.00
2022-10-29T13:13:52.624Z,18.00
2022-10-29T13:16:26.240Z,18.10
2022-10-29T13:19:18.554Z,18.00
2022-10-29T13:22:04.867Z,18.00
2022-10-29T13:24:32.731Z,18.10
2022-10-29T13:30:25.663Z,18.10
2022-10-29T13:33:00.433Z,18.10
2022-10-29T13:35:41.514Z,18.10
2022-10-29T13:38:17.187Z,18.10
2022-10-29T13:41:15.044Z,18.20
2022-10-29T13:43:54.621Z,18.20
2022-10-29T13:46:56.666Z,18.30
2022-10-29T13:49:30.513Z,18.30
2022-10-29T13:52:01.141Z,18.30
2022-10-29T13:54:43.372Z,18.30
2022-10-29T13:57:23.740Z,18.40
2022-10-29T14:00:03.758Z,18.40
2022-10-29T14:02:48.118Z,18.40
2022-10-29T14:05:20.682Z,18.40
2022-10-29T14:07:57.380Z,18.50
2022-10-29T14:13:19.295Z,18.50
2022-10-29T14:16:11.711Z,18.40
2022-10-29T14:18:43.173Z,18.50
2022-10-29T14:21:25.700Z,18.40
2022-10-29T14:24:00.956Z,18.40
2022-10-29T14:26:33.831Z,18.40
2022-10-29T14:29:21.802Z,18.50
2022-10-29T14:32:05.405Z,18.50
2022-10-29T14:34:32.705Z,18.50
2022-10-29T14:37:04.434Z,18.50
2022-10-29T14:39:55.313Z,18.50
2022-10-29T14:42:33.562Z,18.50
2022-10-29T14:45:07.782Z,18.40
2022-10-29T14:47:39.350Z,18.40
2022-10-29T14:50:15.723Z,18.40
2022-10-29T14:52:49.739Z,18.40
2022-10-29T14:55:26.046Z,18.40
2022-10-29T14:58:05.542Z,18.40
2022-10-29T15:00:36.900Z,18.40
2022-10-29T15:03:22.820Z,18.50
2022-10-29T15:05:50.571Z,18.50
2022-10-29T15:11:08.299Z,18.40
2022-10-29T15:13:35.548Z,18.50
2022-10-29T15:16:22.569Z,18.40
2022-10-29T15:18:58.624Z,18.40
2022-10-29T15:21:28.727Z,18.40
2022-10-29T15:23:59.991Z,18.40
2022-10-29T15:26:32.778Z,18.40
2022-10-29T15:28:59.985Z,18.40
2022-10-29T15:31:34.760Z,18.40
2022-10-29T15:34:08.942Z,18.40
2022-10-29T15:36:46.810Z,18.40
2022-10-29T15:39:27.399Z,18.40
2022-10-29T15:42:01.271Z,18.30
2022-10-29T15:44:36.559Z,18.20
2022-10-29T15:47:22.081Z,18.20
2022-10-29T15:49:50.316Z,18.10
2022-10-29T15:52:19.134Z,18.00
2022-10-29T15:54:46.777Z,18.00
2022-10-29T15:57:17.772Z,18.00
2022-10-29T15:59:53.439Z,17.90
2022-10-29T16:02:20.660Z,17.80
2022-10-29T16:04:47.675Z,17.80
2022-10-29T16:07:18.872Z,17.70
2022-10-29T16:09:50.478Z,17.70
2022-10-29T16:12:18.069Z,17.70
2022-10-29T16:14:47.853Z,17.60
2022-10-29T16:17:24.326Z,17.60
2022-10-29T16:19:51.303Z,17.60
2022-10-29T16:22:28.547Z,17.60
2022-10-29T16:24:57.661Z,17.50
2022-10-29T16:27:24.731Z,17.40
2022-10-29T16:29:58.038Z,17.30
2022-10-29T16:32:25.278Z,17.30
2022-10-29T16:34:54.636Z,17.20
2022-10-29T16:37:22.929Z,17.20
2022-10-29T16:39:49.839Z,17.10
2022-10-29T16:42:30.265Z,17.00
2022-10-29T16:45:04.997Z,16.90
2022-10-29T16:47:47.147Z,16.90
2022-10-29T16:50:19.575Z,16.90
2022-10-29T16:52:57.306Z,16.70
2022-10-29T16:55:30.343Z,16.60
2022-10-29T16:57:58.009Z,16.70
2022-10-29T17:00:31.818Z,16.60
2022-10-29T17:03:00.697Z,16.60
2022-10-29T17:05:29.243Z,16.60
2022-10-29T17:08:04.297Z,16.60
2022-10-29T17:10:31.440Z,16.60
2022-10-29T17:13:01.220Z,16.60
2022-10-29T17:15:28.761Z,16.60
2022-10-29T17:20:36.697Z,16.60
2022-10-29T17:23:04.929Z,16.50
2022-10-29T17:25:35.127Z,16.40
2022-10-29T17:28:05.076Z,16.30
2022-10-29T17:30:39.533Z,16.30
2022-10-29T17:33:06.431Z,16.20
2022-10-29T17:35:35.461Z,16.00
2022-10-29T17:38:09.826Z,15.90
2022-10-29T17:40:46.293Z,15.80
2022-10-29T17:43:13.974Z,15.90
2022-10-29T17:45:46.717Z,15.90
2022-10-29T17:48:18.638Z,15.80
2022-10-29T17:50:53.481Z,15.70
2022-10-29T17:53:22.759Z,15.70
2022-10-29T17:55:50.317Z,15.70
2022-10-29T17:58:23.089Z,15.80
2022-10-29T18:00:50.164Z,15.90
2022-10-29T18:03:17.281Z,15.90
2022-10-29T18:05:45.029Z,16.00
2022-10-29T18:08:11.966Z,16.00
2022-10-29T18:10:40.224Z,15.90
2022-10-29T18:13:07.209Z,15.90
2022-10-29T18:15:34.160Z,15.80
2022-10-29T18:18:01.127Z,15.80
2022-10-29T18:20:30.444Z,15.80
2022-10-29T18:23:00.575Z,15.80
2022-10-29T18:25:33.856Z,15.70
2022-10-29T18:28:02.149Z,15.60
2022-10-29T18:30:29.072Z,15.40
2022-10-29T18:33:01.707Z,15.40
2022-10-29T18:35:36.268Z,15.40
2022-10-29T18:38:03.237Z,15.30
2022-10-29T18:40:30.135Z,15.20
2022-10-29T18:42:57.119Z,15.30
2022-10-29T18:45:25.813Z,15.30
2022-10-29T18:47:52.771Z,15.40
2022-10-29T18:50:19.688Z,15.40
2022-10-29T18:52:46.697Z,15.30
2022-10-29T18:55:13.737Z,15.40
2022-10-29T18:57:40.652Z,15.40
2022-10-29T19:00:09.436Z,15.40
2022-10-29T19:02:37.814Z,15.30
2022-10-29T19:05:05.860Z,15.30
2022-10-29T19:07:32.943Z,15.30
2022-10-29T19:10:02.863Z,15.30
2022-10-29T19:12:37.146Z,15.30
2022-10-29T19:15:05.170Z,15.20
2022-10-29T19:17:32.040Z,15.20
2022-10-29T19:20:00.419Z,15.20
2022-10-29T19:22:27.638Z,15.20
2022-10-29T19:24:54.915Z,15.30
2022-10-29T19:27:27.721Z,15.20
2022-10-29T19:29:54.637Z,15.20
2022-10-29T19:32:21.563Z,15.20
2022-10-29T19:34:48.582Z,15.20
2022-10-29T19:37:16.926Z,15.20
2022-10-29T19:39:43.870Z,15.20
2022-10-29T19:42:10.833Z,15.10
2022-10-29T19:44:37.822Z,15.10
2022-10-29T19:47:04.888Z,15.10
2022-10-29T19:49:31.778Z,15.00
2022-10-29T19:51:59.798Z,15.10
2022-10-29T19:54:28.113Z,15.20
2022-10-29T19:56:55.129Z,15.10
2022-10-29T19:59:22.076Z,15.00
2022-10-29T20:01:54.817Z,15.10
2022-10-29T20:04:24.719Z,15.00
2022-10-29T20:06:57.636Z,15.00
2022-10-29T20:09:28.756Z,15.00
2022-10-29T20:11:55.708Z,15.00
2022-10-29T20:14:29.032Z,15.00
2022-10-29T20:16:56.336Z,14.90
2022-10-29T20:19:23.296Z,15.00
2022-10-29T20:21:50.217Z,14.90
2022-10-29T20:24:17.324Z,15.00
2022-10-29T20:26:45.570Z,15.00
2022-10-29T20:29:12.731Z,14.90
2022-10-29T20:31:41.507Z,14.90
2022-10-29T20:34:09.704Z,14.90
2022-10-29T20:36:36.789Z,14.90
2022-10-29T20:39:03.975Z,14.80
2022-10-29T20:41:35.997Z,14.90
2022-10-29T20:44:04.534Z,14.80
2022-10-29T20:46:38.030Z,14.90
2022-10-29T20:49:15.055Z,15.00
2022-10-29T20:51:42.049Z,15.00
2022-10-29T20:54:11.992Z,15.00
2022-10-29T20:56:39.095Z,15.00
2022-10-29T20:59:07.454Z,14.90
2022-10-29T21:01:34.460Z,14.90
2022-10-29T21:04:01.681Z,14.90
2022-10-29T21:06:29.870Z,14.90
2022-10-29T21:08:57.030Z,14.90
2022-10-29T21:11:24.817Z,14.80
2022-10-29T21:13:51.783Z,14.90
2022-10-29T21:16:22.773Z,14.90
2022-10-29T21:18:57.998Z,14.80
2022-10-29T21:21:29.655Z,14.70
2022-10-29T21:24:02.851Z,14.80
2022-10-29T21:26:36.118Z,14.70
2022-10-29T21:29:06.143Z,14.80
2022-10-29T21:31:37.208Z,14.80
2022-10-29T21:34:04.237Z,14.80
2022-10-29T21:36:37.074Z,14.70
2022-10-29T21:39:06.770Z,14.60
2022-10-29T21:41:41.165Z,14.60
2022-10-29T21:44:08.045Z,14.60
2022-10-29T21:46:37.214Z,14.60
2022-10-29T21:49:05.510Z,14.60
2022-10-29T21:51:32.455Z,14.70
2022-10-29T21:54:00.567Z,14.70
2022-10-29T21:56:27.707Z,14.70
2022-10-29T21:58:57.651Z,14.70
2022-10-29T22:01:27.491Z,14.70
2022-10-29T22:04:00.861Z,14.80
2022-10-29T22:06:29.337Z,15.00
2022-10-29T22:08:58.332Z,14.90
2022-10-29T22:11:26.977Z,14.80
2022-10-29T22:13:55.788Z,14.80
2022-10-29T22:16:22.965Z,14.70
2022-10-29T22:18:55.789Z,14.70
2022-10-29T22:21:25.540Z,14.70
2022-10-29T22:23:58.541Z,14.60
2022-10-29T22:26:28.841Z,14.70
2022-10-29T22:29:01.901Z,14.70
2022-10-29T22:31:29.018Z,14.80
2022-10-29T22:33:58.694Z,14.80
2022-10-29T22:36:32.049Z,14.90
2022-10-29T22:39:01.505Z,14.80
2022-10-29T22:41:31.615Z,14.70
2022-10-29T22:44:09.539Z,14.70
2022-10-29T22:46:36.496Z,14.70
2022-10-29T22:49:03.656Z,14.70
2022-10-29T22:51:33.754Z,14.70
2022-10-29T22:54:02.944Z,14.70
2022-10-29T22:56:34.458Z,14.70
2022-10-29T22:59:01.836Z,14.70
2022-10-29T23:01:31.329Z,14.80
2022-10-29T23:03:58.955Z,14.70
2022-10-29T23:06:26.919Z,14.70
2022-10-29T23:08:56.100Z,14.70
2022-10-29T23:11:28.911Z,14.60
2022-10-29T23:13:58.008Z,14.70
2022-10-29T23:16:28.228Z,14.70
2022-10-29T23:18:57.508Z,14.70
2022-10-29T23:21:27.832Z,14.80
2022-10-29T23:23:55.336Z,14.80
2022-10-29T23:26:25.302Z,14.90
2022-10-29T23:28:52.899Z,14.80
2022-10-29T23:31:22.598Z,14.80
2022-10-29T23:33:51.882Z,14.80
2022-10-29T23:36:27.223Z,14.80
2022-10-29T23:39:01.395Z,14.80
2022-10-29T23:41:31.350Z,14.80
2022-10-29T23:43:59.023Z,14.80
2022-10-29T23:46:25.985Z,14.80
2022-10-29T23:48:53.031Z,14.80
2022-10-29T23:51:20.190Z,14.80
2022-10-29T23:53:53.189Z,14.70
2022-10-29T23:56:25.940Z,14.80
2022-10-29T23:58:54.486Z,14.80
